Time;durP1;ratioP1;P1;durP2;ratioP2;P2;SDS_P1;SDS_P2;PMS_P1;PMS_P2;Temp;Humidity;BMP_temperature;BMP_pressure;BME280_temperature;BME280_humidity;BME280_pressure;Samples;Min_cycle;Max_cycle;Signal;HPM_P1;HPM_P2
2023/11/14 06:23:53;;;;;;;22.92;4.90;;;23.20;93.90;;;;;;5151075;27;45484;-87
2023/11/14 06:26:19;;;;;;;24.05;5.88;;;23.30;94.30;;;;;;5166065;27;45378;-86
2023/11/14 06:28:44;;;;;;;18.30;5.22;;;23.30;94.20;;;;;;5138613;27;45491;-87
2023/11/14 06:31:10;;;;;;;20.02;4.45;;;23.30;94.40;;;;;;5147697;27;45140;-89
2023/11/14 06:33:36;;;;;;;23.33;4.45;;;23.30;94.30;;;;;;5160817;27;47632;-89
2023/11/14 06:36:02;;;;;;;15.43;4.57;;;23.20;94.40;;;;;;5145423;27;45841;-88
2023/11/14 06:38:27;;;;;;;17.02;4.38;;;23.20;94.40;;;;;;5116159;27;45553;-88
2023/11/14 06:40:53;;;;;;;17.25;3.92;;;23.20;94.40;;;;;;5131947;27;45666;-89
2023/11/14 06:43:18;;;;;;;14.98;3.50;;;23.20;94.40;;;;;;5131916;27;47122;-88
2023/11/14 06:45:44;;;;;;;12.38;3.22;;;23.20;94.30;;;;;;5155095;27;45658;-89
2023/11/14 06:48:09;;;;;;;13.93;3.50;;;23.20;94.30;;;;;;5134547;27;45692;-89
2023/11/14 06:50:35;;;;;;;19.00;3.97;;;23.20;94.30;;;;;;5140732;27;45676;-89
2023/11/14 06:53:00;;;;;;;10.68;3.05;;;23.20;94.30;;;;;;5148294;27;46523;-88
2023/11/14 06:55:28;;;;;;;11.40;3.55;;;23.20;94.20;;;;;;5132602;27;58749;-85
2023/11/14 06:57:53;;;;;;;11.18;3.35;;;23.20;94.20;;;;;;5140133;27;45392;-87
2023/11/14 07:00:19;;;;;;;11.27;2.65;;;23.20;94.20;;;;;;5140695;27;45491;-87
2023/11/14 07:02:45;;;;;;;14.27;3.67;;;23.20;94.10;;;;;;5138902;27;45651;-87
2023/11/14 07:05:11;;;;;;;10.80;2.65;;;23.20;94.10;;;;;;5146590;27;45518;-86
2023/11/14 07:07:40;;;;;;;9.48;2.80;;;23.20;93.90;;;;;;5167178;27;45691;-89
2023/11/14 07:10:08;;;;;;;13.05;3.10;;;23.20;94.00;;;;;;5162386;27;45461;-89
2023/11/14 07:12:34;;;;;;;12.43;3.05;;;23.20;93.90;;;;;;5125094;27;49334;-87
2023/11/14 07:15:00;;;;;;;7.68;3.10;;;23.30;93.90;;;;;;5128525;27;45490;-87
2023/11/14 07:17:26;;;;;;;11.60;3.13;;;23.20;93.80;;;;;;5121241;27;45426;-89
2023/11/14 07:19:53;;;;;;;5.38;2.22;;;23.20;93.80;;;;;;5118682;27;45495;-88
2023/11/14 07:22:19;;;;;;;7.97;2.67;;;23.30;93.70;;;;;;5120533;27;46479;-89
2023/11/14 07:24:44;;;;;;;6.53;2.13;;;23.30;93.70;;;;;;5118243;27;45614;-86
2023/11/14 07:27:11;;;;;;;7.13;2.40;;;23.30;93.70;;;;;;5115082;27;45405;-88
2023/11/14 07:29:36;;;;;;;13.20;2.58;;;23.30;93.60;;;;;;5095669;27;45652;-87
2023/11/14 07:32:02;;;;;;;9.48;2.65;;;23.30;93.50;;;;;;5096065;27;47978;-87
2023/11/14 07:34:28;;;;;;;9.45;2.80;;;23.30;93.50;;;;;;5116574;27;45475;-90
2023/11/14 07:36:54;;;;;;;7.70;2.25;;;23.30;93.50;;;;;;5100175;27;57262;-89
2023/11/14 07:39:19;;;;;;;11.55;3.00;;;23.30;93.50;;;;;;5091305;27;45542;-88
2023/11/14 07:41:45;;;;;;;8.18;1.95;;;23.30;93.40;;;;;;5089309;27;47808;-89
2023/11/14 07:44:11;;;;;;;11.70;2.60;;;23.30;93.40;;;;;;5114033;27;45494;-89
2023/11/14 07:46:38;;;;;;;6.05;2.05;;;23.30;93.40;;;;;;5110746;27;45448;-89
2023/11/14 07:49:05;;;;;;;11.38;2.72;;;23.40;93.40;;;;;;5089266;27;45564;-87
2023/11/14 07:51:31;;;;;;;7.55;2.83;;;23.40;93.20;;;;;;5096260;27;47638;-85
2023/11/14 07:53:56;;;;;;;7.32;2.00;;;23.50;93.30;;;;;;5105020;27;45534;-86
2023/11/14 07:56:24;;;;;;;8.90;2.22;;;23.50;93.10;;;;;;5127685;27;45391;-87
2023/11/14 07:58:50;;;;;;;6.88;2.55;;;23.50;93.00;;;;;;5107771;27;45483;-87
2023/11/14 08:01:15;;;;;;;9.18;1.85;;;23.50;93.20;;;;;;5118304;27;45617;-88
2023/11/14 08:03:41;;;;;;;9.85;2.00;;;23.60;93.10;;;;;;5106338;27;45548;-88
2023/11/14 08:06:07;;;;;;;7.40;2.03;;;23.60;93.00;;;;;;5115320;27;45519;-88
2023/11/14 08:08:33;;;;;;;5.18;1.88;;;23.50;93.00;;;;;;5106316;27;45311;-88
2023/11/14 08:11:00;;;;;;;9.35;2.40;;;23.60;93.00;;;;;;5107483;27;45958;-87
2023/11/14 08:13:25;;;;;;;8.93;2.30;;;23.60;93.00;;;;;;5105183;27;45403;-87
2023/11/14 08:15:51;;;;;;;6.03;2.00;;;23.60;92.90;;;;;;5106284;27;45803;-88
2023/11/14 08:18:17;;;;;;;5.57;1.75;;;23.60;92.80;;;;;;5105104;27;45443;-88
2023/11/14 08:20:43;;;;;;;8.13;1.95;;;23.60;92.80;;;;;;5106210;27;45674;-88
2023/11/14 08:23:08;;;;;;;7.18;2.40;;;23.60;92.80;;;;;;5110983;27;45597;-89
2023/11/14 08:25:34;;;;;;;5.55;1.60;;;23.60;92.80;;;;;;5111167;27;50205;-87
2023/11/14 08:27:59;;;;;;;7.55;1.95;;;23.60;92.80;;;;;;5106077;27;48868;-88
2023/11/14 08:30:28;;;;;;;7.40;1.65;;;23.60;92.80;;;;;;5103310;27;46931;-88
2023/11/14 08:32:57;;;;;;;5.57;1.60;;;23.60;92.70;;;;;;5105313;27;45509;-90
2023/11/14 08:35:25;;;;;;;6.10;2.25;;;23.70;92.50;;;;;;5120964;27;45776;-90
2023/11/14 08:37:54;;;;;;;5.47;2.17;;;23.70;92.70;;;;;;5097604;27;45601;-88
2023/11/14 08:40:22;;;;;;;9.13;2.17;;;23.70;92.60;;;;;;5101136;27;46592;-89
2023/11/14 08:42:51;;;;;;;8.77;1.73;;;23.70;92.70;;;;;;5103921;27;45534;-88
2023/11/14 08:45:17;;;;;;;6.68;1.70;;;23.80;92.50;;;;;;5099904;27;45449;-90
2023/11/14 08:47:43;;;;;;;6.15;1.60;;;23.80;92.60;;;;;;5096768;27;45612;-88
2023/11/14 08:50:09;;;;;;;4.50;1.70;;;23.80;92.50;;;;;;5101096;27;45953;-90
2023/11/14 08:52:35;;;;;;;7.10;2.17;;;23.80;92.50;;;;;;5082943;27;46019;-89
2023/11/14 08:55:01;;;;;;;6.05;1.42;;;23.80;92.40;;;;;;5114207;27;45730;-88
2023/11/14 08:57:28;;;;;;;5.40;1.88;;;23.90;92.50;;;;;;5099988;27;45508;-87
2023/11/14 08:59:55;;;;;;;4.75;1.92;;;23.80;92.30;;;;;;5103578;27;45765;-87
2023/11/14 09:02:21;;;;;;;6.13;1.40;;;23.80;92.50;;;;;;5092905;27;45378;-88
2023/11/14 09:04:47;;;;;;;3.63;1.65;;;23.90;92.30;;;;;;5101051;27;45862;-88
2023/11/14 09:07:13;;;;;;;4.47;1.55;;;23.90;92.20;;;;;;5107276;27;45472;-88
2023/11/14 09:09:39;;;;;;;8.73;1.75;;;23.80;92.40;;;;;;5116527;27;46690;-89
2023/11/14 09:12:06;;;;;;;3.85;1.63;;;23.80;92.20;;;;;;5106381;27;45499;-89
2023/11/14 09:14:31;;;;;;;7.80;1.60;;;23.80;92.10;;;;;;5104459;27;45584;-88
2023/11/14 09:16:57;;;;;;;3.55;1.45;;;23.80;92.10;;;;;;5099518;27;50009;-87
2023/11/14 09:19:23;;;;;;;5.03;1.40;;;23.80;92.00;;;;;;5103830;27;59847;-86
2023/11/14 09:21:49;;;;;;;3.47;1.42;;;23.80;92.00;;;;;;5105702;27;45490;-88
2023/11/14 09:24:15;;;;;;;3.78;1.25;;;23.80;91.90;;;;;;5103511;27;45372;-88
2023/11/14 09:26:40;;;;;;;5.43;1.80;;;23.80;91.90;;;;;;5088278;27;45429;-88
2023/11/14 09:29:06;;;;;;;5.55;1.20;;;23.80;91.90;;;;;;5104913;27;46159;-89
2023/11/14 09:31:32;;;;;;;7.20;1.73;;;23.80;92.10;;;;;;5099681;27;45344;-87
2023/11/14 09:33:57;;;;;;;4.65;1.55;;;23.80;92.20;;;;;;5099934;27;55205;-91
2023/11/14 09:36:23;;;;;;;7.38;1.75;;;23.90;92.20;;;;;;5090648;27;45621;-89
2023/11/14 09:38:48;;;;;;;4.60;1.50;;;23.90;92.10;;;;;;5106839;27;46481;-89
2023/11/14 09:41:14;;;;;;;6.97;1.52;;;23.90;92.00;;;;;;5113419;27;45512;-91
2023/11/14 09:43:40;;;;;;;9.63;1.50;;;24.00;92.00;;;;;;5074975;27;45531;-90
2023/11/14 09:46:07;;;;;;;4.03;1.40;;;24.00;92.10;;;;;;5116510;27;45442;-89
2023/11/14 09:48:35;;;;;;;6.47;1.65;;;24.00;92.10;;;;;;5090893;27;48159;-89
2023/11/14 09:51:04;;;;;;;7.20;1.75;;;24.00;92.00;;;;;;5118549;27;45619;-91
2023/11/14 09:53:32;;;;;;;10.20;3.53;;;23.90;91.90;;;;;;5114502;27;45656;-88
2023/11/14 09:55:58;;;;;;;7.25;1.40;;;24.00;91.80;;;;;;5112667;27;45449;-86
2023/11/14 09:58:24;;;;;;;8.88;1.55;;;24.00;91.90;;;;;;5086969;27;46673;-89
2023/11/14 10:00:50;;;;;;;5.07;1.42;;;24.00;91.90;;;;;;5091484;27;45374;-89
2023/11/14 10:03:17;;;;;;;8.15;1.60;;;24.10;91.90;;;;;;5106277;27;45586;-91
2023/11/14 10:05:43;;;;;;;8.43;2.10;;;24.00;92.00;;;;;;5099270;27;45443;-88
2023/11/14 10:08:13;;;;;;;8.45;2.22;;;24.10;91.90;;;;;;5085641;27;46039;-90
2023/11/14 10:10:40;;;;;;;7.15;1.60;;;24.10;91.90;;;;;;5103134;27;45368;-87
2023/11/14 10:13:19;;;;;;;4.93;1.73;;;24.10;91.90;;;;;;5096277;27;45516;-88
2023/11/14 10:15:44;;;;;;;4.47;1.73;;;24.10;91.80;;;;;;5099606;27;45479;-88
2023/11/14 10:18:11;;;;;;;5.07;1.67;;;24.10;91.90;;;;;;5098735;27;45408;-90
2023/11/14 10:20:39;;;;;;;4.28;1.45;;;24.10;91.80;;;;;;5097810;27;45420;-90
2023/11/14 10:23:07;;;;;;;5.68;1.23;;;24.10;91.80;;;;;;5106049;27;45551;-88
2023/11/14 10:25:33;;;;;;;8.32;1.70;;;24.20;91.80;;;;;;5099637;27;45385;-90
2023/11/14 10:28:04;;;;;;;11.80;2.13;;;24.20;91.70;;;;;;5086693;27;48456;-90
2023/11/14 10:30:42;;;;;;;4.28;1.30;;;24.20;91.50;;;;;;5099130;27;45454;-88
2023/11/14 10:33:08;;;;;;;3.75;1.20;;;24.10;91.40;;;;;;5100347;27;45348;-88
2023/11/14 10:35:33;;;;;;;6.45;1.38;;;24.10;91.20;;;;;;5097545;27;45535;-88
2023/11/14 10:38:19;;;;;;;11.20;1.80;;;24.20;91.00;;;;;;5107840;27;45442;-86
2023/11/14 10:40:47;;;;;;;7.18;1.48;;;24.10;91.10;;;;;;5115357;27;45305;-88
2023/11/14 10:43:13;;;;;;;4.45;1.60;;;24.10;91.10;;;;;;5120115;27;45435;-87
2023/11/14 10:45:39;;;;;;;6.80;1.65;;;24.10;91.20;;;;;;5115609;27;45609;-88
2023/11/14 10:48:06;;;;;;;8.30;1.52;;;24.10;91.30;;;;;;5117200;27;46748;-86
2023/11/14 10:50:33;;;;;;;8.95;2.03;;;24.10;91.20;;;;;;5105980;27;46036;-90
2023/11/14 10:52:59;;;;;;;16.65;1.98;;;24.10;91.10;;;;;;5102846;27;45484;-88
2023/11/14 10:55:25;;;;;;;6.22;1.35;;;24.10;90.90;;;;;;5100778;27;45477;-89
2023/11/14 10:57:53;;;;;;;11.85;1.92;;;24.10;91.00;;;;;;5100229;27;45971;-87
2023/11/14 11:00:22;;;;;;;5.88;1.67;;;24.20;91.00;;;;;;5102328;27;45396;-89
2023/11/14 11:02:50;;;;;;;8.32;1.73;;;24.20;90.60;;;;;;5097396;27;45566;-88
